createdAt,value
2023-03-29T00:00:14.569Z,3.77
2023-03-29T00:02:48.597Z,3.70
2023-03-29T00:05:18.931Z,4.00
2023-03-29T00:07:47.417Z,4.23
2023-03-29T00:10:15.929Z,4.27
2023-03-29T00:12:45.773Z,3.87
2023-03-29T00:15:14.670Z,3.70
2023-03-29T00:17:43.147Z,3.40
2023-03-29T00:20:13.747Z,3.77
2023-03-29T00:22:43.589Z,4.20
2023-03-29T00:25:13.066Z,3.60
2023-03-29T00:27:42.066Z,3.93
2023-03-29T00:30:15.063Z,3.90
2023-03-29T00:32:43.571Z,4.03
2023-03-29T00:35:12.705Z,4.10
2023-03-29T00:37:41.453Z,4.30
2023-03-29T00:40:13.086Z,4.00
2023-03-29T00:42:46.530Z,4.17
2023-03-29T00:45:27.700Z,4.70
2023-03-29T00:48:00.226Z,3.87
2023-03-29T00:50:34.357Z,4.10
2023-03-29T00:53:11.052Z,4.20
2023-03-29T00:55:45.612Z,4.57
2023-03-29T00:58:22.128Z,4.50
2023-03-29T01:01:02.427Z,4.40
2023-03-29T01:03:41.551Z,4.57
2023-03-29T01:06:12.541Z,4.30
2023-03-29T01:08:46.080Z,4.67
2023-03-29T01:11:22.353Z,5.37
2023-03-29T01:14:00.218Z,4.87
2023-03-29T01:16:33.515Z,4.90
2023-03-29T01:19:02.447Z,4.80
2023-03-29T01:21:36.655Z,4.43
2023-03-29T01:24:37.982Z,5.30
2023-03-29T01:27:15.795Z,5.60
2023-03-29T01:29:54.126Z,5.20
2023-03-29T01:32:35.082Z,5.33
2023-03-29T01:35:11.375Z,5.63
2023-03-29T01:37:48.229Z,5.10
2023-03-29T01:40:17.047Z,5.17
2023-03-29T01:42:54.517Z,5.97
2023-03-29T01:45:35.659Z,5.77
2023-03-29T01:48:14.762Z,5.43
2023-03-29T01:50:48.412Z,5.23
2023-03-29T01:53:24.885Z,5.20
2023-03-29T01:55:57.695Z,5.50
2023-03-29T01:58:35.217Z,6.13
2023-03-29T02:01:10.418Z,5.40
2023-03-29T02:03:43.879Z,6.13
2023-03-29T02:06:17.155Z,5.50
2023-03-29T02:08:47.587Z,5.93
2023-03-29T02:11:16.644Z,5.63
2023-03-29T02:13:45.495Z,4.67
2023-03-29T02:16:17.689Z,5.30
2023-03-29T02:18:50.315Z,5.13
2023-03-29T02:21:30.055Z,5.77
2023-03-29T02:24:06.492Z,5.50
2023-03-29T02:26:36.698Z,5.47
2023-03-29T02:31:42.219Z,5.37
2023-03-29T02:34:21.464Z,5.50
2023-03-29T02:36:54.589Z,5.57
2023-03-29T02:39:26.274Z,5.13
2023-03-29T02:41:57.230Z,5.20
2023-03-29T02:44:29.414Z,5.37
2023-03-29T02:47:05.468Z,4.87
2023-03-29T02:49:35.645Z,4.80
2023-03-29T02:52:13.753Z,5.20
2023-03-29T02:54:45.392Z,4.90
2023-03-29T02:57:13.878Z,4.40
2023-03-29T02:59:44.787Z,4.70
2023-03-29T03:02:15.373Z,3.97
2023-03-29T03:04:44.922Z,4.80
2023-03-29T03:07:13.844Z,4.37
2023-03-29T03:09:42.756Z,4.67
2023-03-29T03:12:11.568Z,4.23
2023-03-29T03:14:40.677Z,4.33
2023-03-29T03:17:09.234Z,4.20
2023-03-29T03:19:39.422Z,4.10
2023-03-29T03:22:10.057Z,3.60
2023-03-29T03:24:39.406Z,3.70
2023-03-29T03:27:08.638Z,4.07
2023-03-29T03:29:38.692Z,3.77
2023-03-29T03:32:09.986Z,4.20
2023-03-29T03:35:00.595Z,3.67
2023-03-29T03:37:29.795Z,3.33
2023-03-29T03:39:59.458Z,3.53
2023-03-29T03:42:30.080Z,4.03
2023-03-29T03:45:01.097Z,3.50
2023-03-29T03:47:48.582Z,3.50
2023-03-29T03:50:38.707Z,3.83
2023-03-29T03:53:08.438Z,3.73
2023-03-29T03:55:57.323Z,3.10
2023-03-29T03:58:30.486Z,3.60
2023-03-29T04:00:59.907Z,3.10
2023-03-29T04:03:39.511Z,3.10
2023-03-29T04:06:13.239Z,3.57
2023-03-29T04:09:02.408Z,3.60
2023-03-29T04:11:38.014Z,4.07
2023-03-29T04:14:07.793Z,4.03
2023-03-29T04:16:55.639Z,3.70
2023-03-29T04:19:43.930Z,4.10
2023-03-29T04:22:13.878Z,4.50
2023-03-29T04:24:44.264Z,4.70
2023-03-29T04:27:31.240Z,4.27
2023-03-29T04:30:02.216Z,4.20
2023-03-29T04:32:49.344Z,4.10
2023-03-29T04:35:19.396Z,4.37
2023-03-29T04:37:51.595Z,4.20
2023-03-29T04:40:22.548Z,4.40
2023-03-29T04:43:03.664Z,4.80
2023-03-29T04:45:33.258Z,4.83
2023-03-29T04:48:13.509Z,4.80
2023-03-29T04:50:47.890Z,4.60
2023-03-29T04:53:20.166Z,4.37
2023-03-29T04:55:49.480Z,4.40
2023-03-29T04:58:32.256Z,4.13
2023-03-29T05:01:02.045Z,4.20
2023-03-29T05:03:36.478Z,4.60
2023-03-29T05:06:13.769Z,4.43
2023-03-29T05:08:44.780Z,4.17
2023-03-29T05:11:25.427Z,4.03
2023-03-29T05:13:55.991Z,4.00
2023-03-29T05:16:26.426Z,3.93
2023-03-29T05:18:58.033Z,3.80
2023-03-29T05:21:28.368Z,4.00
2023-03-29T05:24:00.771Z,4.10
2023-03-29T05:26:54.149Z,4.07
2023-03-29T05:29:23.584Z,4.13
2023-03-29T05:32:00.331Z,4.43
2023-03-29T05:34:29.799Z,5.50
2023-03-29T05:37:01.658Z,4.47
2023-03-29T05:39:38.803Z,4.53
2023-03-29T05:42:07.817Z,4.77
2023-03-29T05:44:47.945Z,4.67
2023-03-29T05:47:21.393Z,4.80
2023-03-29T05:49:49.885Z,5.50
2023-03-29T05:52:22.633Z,5.80
2023-03-29T05:54:52.417Z,5.67
2023-03-29T05:57:22.192Z,4.97
2023-03-29T05:59:50.704Z,5.27
2023-03-29T06:02:19.568Z,5.60
2023-03-29T06:04:54.261Z,5.17
2023-03-29T06:07:25.560Z,4.63
2023-03-29T06:10:21.772Z,4.87
2023-03-29T06:12:56.543Z,4.40
2023-03-29T06:15:27.666Z,4.37
2023-03-29T06:18:03.690Z,4.20
2023-03-29T06:20:32.906Z,4.63
2023-03-29T06:23:08.051Z,4.40
2023-03-29T06:25:38.176Z,4.47
2023-03-29T06:28:07.821Z,4.10
2023-03-29T06:30:37.419Z,4.80
2023-03-29T06:33:07.272Z,4.50
2023-03-29T06:35:52.222Z,4.30
2023-03-29T06:38:28.692Z,4.73
2023-03-29T06:41:05.423Z,5.23
2023-03-29T06:43:53.612Z,4.80
2023-03-29T06:46:25.322Z,4.73
2023-03-29T06:48:58.940Z,4.83
2023-03-29T06:51:35.723Z,4.90
2023-03-29T06:54:05.472Z,5.10
2023-03-29T06:56:36.423Z,4.53
2023-03-29T06:59:08.499Z,4.30
2023-03-29T07:02:03.187Z,4.33
2023-03-29T07:04:57.814Z,4.00
2023-03-29T07:07:44.101Z,4.10
2023-03-29T07:10:28.187Z,4.23
2023-03-29T07:13:17.326Z,4.03
2023-03-29T07:15:46.670Z,4.07
2023-03-29T07:18:25.258Z,3.97
2023-03-29T07:20:53.903Z,4.23
2023-03-29T07:23:22.570Z,4.00
2023-03-29T07:25:52.677Z,3.80
2023-03-29T07:28:22.811Z,4.00
2023-03-29T07:30:55.031Z,4.40
2023-03-29T07:33:24.383Z,3.83
2023-03-29T07:35:57.345Z,4.20
2023-03-29T07:38:26.479Z,3.40
2023-03-29T07:41:04.442Z,3.60
2023-03-29T07:43:54.622Z,3.40
2023-03-29T07:46:26.290Z,3.47
2023-03-29T07:48:56.712Z,3.53
2023-03-29T07:51:25.552Z,4.20
2023-03-29T07:54:01.888Z,3.70
2023-03-29T07:56:38.965Z,3.63
2023-03-29T07:59:20.768Z,3.97
2023-03-29T08:02:01.619Z,3.63
2023-03-29T08:04:34.902Z,4.07
2023-03-29T08:07:21.193Z,3.67
2023-03-29T08:10:10.790Z,3.10
2023-03-29T08:12:58.147Z,3.70
2023-03-29T08:15:42.180Z,3.50
2023-03-29T08:18:20.306Z,3.30
2023-03-29T08:20:49.351Z,3.30
2023-03-29T08:23:18.066Z,3.30
2023-03-29T08:26:02.775Z,2.50
2023-03-29T08:28:32.332Z,2.80
2023-03-29T08:31:04.194Z,2.73
2023-03-29T08:33:33.368Z,2.60
2023-03-29T08:36:28.246Z,2.90
2023-03-29T08:39:02.040Z,2.30
2023-03-29T08:41:52.581Z,2.40
2023-03-29T08:44:48.626Z,2.30
2023-03-29T08:47:30.653Z,2.87
2023-03-29T08:50:01.513Z,2.70
2023-03-29T08:52:44.397Z,2.83
2023-03-29T08:55:37.272Z,3.00
2023-03-29T08:58:31.552Z,2.70
2023-03-29T09:01:04.095Z,2.83
2023-03-29T09:03:48.974Z,2.60
2023-03-29T09:06:27.524Z,2.80
2023-03-29T09:09:04.566Z,2.70
2023-03-29T09:12:02.758Z,3.10
2023-03-29T09:15:06.963Z,2.80
2023-03-29T09:17:51.778Z,2.90
2023-03-29T09:20:44.667Z,3.13
2023-03-29T09:23:45.306Z,2.83
2023-03-29T09:26:36.061Z,2.77
2023-03-29T09:29:37.414Z,3.07
2023-03-29T09:32:19.963Z,3.07
2023-03-29T09:35:04.517Z,2.30
2023-03-29T09:37:39.500Z,2.90
2023-03-29T09:40:14.723Z,2.63
2023-03-29T09:43:01.847Z,2.50
2023-03-29T09:45:30.837Z,2.43
2023-03-29T09:48:07.981Z,2.00
2023-03-29T09:50:41.759Z,2.30
2023-03-29T09:53:16.970Z,2.10
2023-03-29T09:55:55.427Z,2.00
2023-03-29T09:58:38.750Z,2.40
2023-03-29T10:01:10.523Z,3.30
2023-03-29T10:03:41.546Z,2.50
2023-03-29T10:06:15.819Z,2.53
2023-03-29T10:08:56.901Z,2.23
2023-03-29T10:11:33.515Z,2.43
2023-03-29T10:14:05.534Z,2.30
2023-03-29T10:16:40.044Z,2.27
2023-03-29T10:19:22.802Z,2.67
2023-03-29T10:21:52.903Z,2.70
2023-03-29T10:24:25.134Z,2.50
2023-03-29T10:26:57.034Z,2.00
2023-03-29T10:29:27.917Z,2.60
2023-03-29T10:31:56.681Z,2.60
2023-03-29T10:34:28.189Z,2.20
2023-03-29T10:37:01.200Z,2.47
2023-03-29T10:39:35.862Z,2.50
2023-03-29T10:42:06.047Z,2.40
2023-03-29T10:44:38.662Z,2.40
2023-03-29T10:47:20.201Z,2.47
2023-03-29T10:49:56.473Z,2.50
2023-03-29T10:52:26.995Z,1.90
2023-03-29T10:54:59.259Z,2.17
2023-03-29T10:57:42.740Z,2.13
2023-03-29T11:00:24.536Z,2.10
2023-03-29T11:03:42.046Z,1.80
2023-03-29T11:06:26.345Z,2.08
2023-03-29T11:08:59.869Z,2.70
2023-03-29T11:12:12.264Z,2.30
2023-03-29T11:14:56.265Z,2.28
2023-03-29T11:17:51.105Z,2.10
2023-03-29T11:20:29.819Z,2.00
2023-03-29T11:23:16.428Z,2.25
2023-03-29T11:25:58.853Z,2.50
2023-03-29T11:28:42.220Z,1.98
2023-03-29T11:31:25.912Z,2.40
2023-03-29T11:34:18.327Z,2.50
2023-03-29T11:37:01.129Z,2.95
2023-03-29T11:39:45.229Z,2.33
2023-03-29T11:42:21.499Z,2.67
2023-03-29T11:44:55.806Z,2.47
2023-03-29T11:47:30.638Z,2.55
2023-03-29T11:50:06.493Z,2.50
2023-03-29T11:52:40.911Z,2.45
2023-03-29T11:55:16.289Z,2.60
2023-03-29T11:57:53.118Z,2.45
2023-03-29T12:00:31.625Z,2.50
2023-03-29T12:03:08.278Z,2.45
2023-03-29T12:05:45.226Z,2.20
2023-03-29T12:08:19.805Z,2.80
2023-03-29T12:10:59.135Z,2.65
2023-03-29T12:13:35.360Z,2.15
2023-03-29T12:16:16.518Z,2.10
2023-03-29T12:18:49.427Z,2.13
2023-03-29T12:21:22.106Z,2.30
2023-03-29T12:23:53.434Z,2.38
2023-03-29T12:26:44.733Z,2.40
2023-03-29T12:29:36.822Z,2.58
2023-03-29T12:32:33.307Z,2.40
2023-03-29T12:35:35.024Z,2.92
2023-03-29T12:38:35.537Z,2.10
2023-03-29T12:41:26.116Z,2.58
2023-03-29T12:44:17.714Z,2.50
2023-03-29T12:46:58.614Z,2.40
2023-03-29T12:49:35.407Z,2.33
2023-03-29T12:52:15.501Z,2.25
2023-03-29T12:54:55.927Z,2.20
2023-03-29T12:57:39.457Z,2.30
2023-03-29T13:00:23.776Z,2.03
2023-03-29T13:03:04.060Z,2.00
2023-03-29T13:05:38.162Z,2.72
2023-03-29T13:08:27.793Z,2.20
2023-03-29T13:10:58.960Z,1.95
2023-03-29T13:13:33.802Z,1.95
2023-03-29T13:16:17.392Z,2.13
2023-03-29T13:19:14.549Z,2.15
2023-03-29T13:22:01.851Z,2.00
2023-03-29T13:25:04.313Z,2.40
2023-03-29T13:27:46.576Z,1.92
2023-03-29T13:30:45.380Z,2.13
2023-03-29T13:33:45.077Z,2.35
2023-03-29T13:36:31.279Z,2.65
2023-03-29T13:39:07.101Z,1.90
2023-03-29T13:41:49.425Z,2.33
2023-03-29T13:44:30.315Z,2.35
2023-03-29T13:47:28.494Z,2.25
2023-03-29T13:50:02.309Z,2.30
2023-03-29T13:52:36.493Z,2.58
2023-03-29T13:55:15.889Z,1.90
2023-03-29T13:57:54.296Z,2.20
2023-03-29T14:00:29.012Z,2.15
2023-03-29T14:03:01.550Z,2.17
2023-03-29T14:05:35.650Z,2.88
2023-03-29T14:08:14.420Z,2.10
2023-03-29T14:10:46.922Z,2.00
2023-03-29T14:13:17.840Z,2.60
2023-03-29T14:15:52.113Z,2.20
2023-03-29T14:18:25.904Z,2.30
2023-03-29T14:20:56.932Z,2.30
2023-03-29T14:23:28.323Z,2.33
2023-03-29T14:26:08.065Z,2.90
2023-03-29T14:28:37.783Z,2.20
2023-03-29T14:31:08.124Z,2.17
2023-03-29T14:33:38.144Z,2.13
2023-03-29T14:36:07.799Z,2.10
2023-03-29T14:38:38.342Z,2.33
2023-03-29T14:41:08.605Z,1.95
2023-03-29T14:43:38.687Z,1.65
2023-03-29T14:46:08.538Z,1.63
2023-03-29T14:48:38.517Z,1.90
2023-03-29T14:51:08.113Z,1.70
2023-03-29T14:53:38.971Z,1.67
2023-03-29T14:56:14.620Z,1.70
2023-03-29T14:58:47.622Z,1.48
2023-03-29T15:01:20.084Z,1.70
2023-03-29T15:03:55.210Z,1.55
2023-03-29T15:06:25.644Z,2.28
2023-03-29T15:09:05.203Z,1.80
2023-03-29T15:11:36.816Z,1.50
2023-03-29T15:14:10.007Z,1.67
2023-03-29T15:16:43.345Z,1.75
2023-03-29T15:19:18.139Z,1.70
2023-03-29T15:21:50.610Z,2.30
2023-03-29T15:24:29.452Z,1.70
2023-03-29T15:27:05.853Z,2.17
2023-03-29T15:29:42.421Z,2.35
2023-03-29T15:32:21.582Z,2.70
2023-03-29T15:35:00.617Z,2.55
2023-03-29T15:37:29.800Z,2.30
2023-03-29T15:39:58.974Z,2.50
2023-03-29T15:42:29.010Z,2.30
2023-03-29T15:44:57.924Z,2.45
2023-03-29T15:47:28.060Z,2.20
2023-03-29T15:49:57.037Z,2.28
2023-03-29T15:52:25.722Z,2.40
2023-03-29T15:54:54.486Z,2.75
2023-03-29T15:57:23.495Z,2.78
2023-03-29T15:59:53.600Z,2.92
2023-03-29T16:02:26.164Z,2.67
2023-03-29T16:04:54.773Z,3.03
2023-03-29T16:07:23.331Z,3.10
2023-03-29T16:09:52.285Z,2.90
2023-03-29T16:12:20.973Z,3.72
2023-03-29T16:14:49.902Z,3.33
2023-03-29T16:17:19.811Z,3.40
2023-03-29T16:19:48.248Z,3.55
2023-03-29T16:22:16.697Z,3.20
2023-03-29T16:24:45.070Z,3.53
2023-03-29T16:27:13.653Z,4.07
2023-03-29T16:29:42.566Z,3.90
2023-03-29T16:32:12.095Z,3.88
2023-03-29T16:34:44.836Z,4.10
2023-03-29T16:37:13.927Z,4.13
2023-03-29T16:39:42.630Z,3.28
2023-03-29T16:42:12.917Z,3.08
2023-03-29T16:44:41.563Z,3.10
2023-03-29T16:47:12.678Z,3.00
2023-03-29T16:49:45.302Z,2.72
2023-03-29T16:52:14.729Z,3.20
2023-03-29T16:54:43.546Z,3.20
2023-03-29T16:57:12.514Z,2.80
2023-03-29T16:59:42.327Z,3.40
2023-03-29T17:02:11.929Z,2.60
2023-03-29T17:04:41.949Z,3.08
2023-03-29T17:07:10.750Z,3.40
2023-03-29T17:09:39.735Z,4.78
2023-03-29T17:12:09.061Z,3.15
2023-03-29T17:14:39.284Z,3.03
2023-03-29T17:17:08.070Z,2.53
2023-03-29T17:19:36.842Z,2.00
2023-03-29T17:22:06.750Z,2.08
2023-03-29T17:24:35.667Z,1.80
2023-03-29T17:27:04.120Z,2.25
2023-03-29T17:29:33.210Z,2.15
2023-03-29T17:32:02.307Z,2.42
2023-03-29T17:34:32.951Z,4.03
2023-03-29T17:37:03.804Z,2.92
2023-03-29T17:39:37.509Z,1.98
2023-03-29T17:42:06.824Z,1.77
2023-03-29T17:44:35.676Z,2.47
2023-03-29T17:47:04.635Z,3.25
2023-03-29T17:49:33.276Z,4.13
2023-03-29T17:52:02.043Z,3.85
2023-03-29T17:54:31.021Z,2.42
2023-03-29T17:57:00.943Z,3.38
2023-03-29T17:59:29.730Z,8.18
2023-03-29T18:02:00.138Z,2.35
2023-03-29T18:04:30.914Z,1.90
2023-03-29T18:06:59.620Z,1.80
2023-03-29T18:09:30.613Z,2.08
2023-03-29T18:12:01.471Z,2.67
2023-03-29T18:14:30.346Z,3.00
2023-03-29T18:16:58.910Z,3.00
2023-03-29T18:19:28.133Z,3.53
2023-03-29T18:21:57.513Z,2.70
2023-03-29T18:24:26.219Z,2.45
2023-03-29T18:26:55.131Z,2.65
2023-03-29T18:29:25.471Z,2.60
2023-03-29T18:31:54.262Z,2.25
2023-03-29T18:34:22.746Z,2.65
2023-03-29T18:36:53.833Z,2.40
2023-03-29T18:39:22.485Z,2.40
2023-03-29T18:41:52.071Z,2.58
2023-03-29T18:44:21.892Z,3.22
2023-03-29T18:46:52.238Z,3.25
2023-03-29T18:49:21.460Z,3.28
2023-03-29T18:51:50.889Z,3.13
2023-03-29T18:54:19.564Z,2.90
2023-03-29T18:56:50.659Z,3.00
2023-03-29T18:59:19.331Z,3.25
2023-03-29T19:01:47.896Z,2.30
2023-03-29T19:04:19.877Z,1.80
2023-03-29T19:06:49.477Z,2.20
2023-03-29T19:09:18.117Z,2.08
2023-03-29T19:11:47.870Z,1.65
2023-03-29T19:14:17.487Z,2.50
2023-03-29T19:16:46.372Z,4.13
2023-03-29T19:19:14.827Z,6.18
2023-03-29T19:21:44.583Z,4.57
2023-03-29T19:24:13.019Z,4.38
2023-03-29T19:26:41.967Z,4.95
2023-03-29T19:29:11.737Z,4.70
2023-03-29T19:31:40.412Z,3.40
2023-03-29T19:34:11.113Z,3.08
2023-03-29T19:36:40.253Z,3.70
2023-03-29T19:39:10.172Z,3.47
2023-03-29T19:41:41.347Z,3.78
2023-03-29T19:44:10.700Z,4.82
2023-03-29T19:46:39.068Z,4.57
2023-03-29T19:49:08.873Z,5.55
2023-03-29T19:51:37.578Z,5.13
2023-03-29T19:54:06.960Z,4.63
2023-03-29T19:56:37.361Z,5.63
2023-03-29T19:59:05.735Z,5.47
2023-03-29T20:01:34.181Z,4.80
2023-03-29T20:04:03.524Z,9.90
2023-03-29T20:06:31.930Z,8.88
2023-03-29T20:09:00.826Z,6.70
2023-03-29T20:11:29.934Z,4.75
2023-03-29T20:14:00.453Z,7.35
2023-03-29T20:16:29.828Z,5.38
2023-03-29T20:19:01.949Z,4.90
2023-03-29T20:21:30.872Z,4.78
2023-03-29T20:23:59.942Z,3.92
2023-03-29T20:26:29.166Z,4.30
2023-03-29T20:29:00.504Z,4.65
2023-03-29T20:31:31.414Z,4.25
2023-03-29T20:34:00.042Z,4.60
2023-03-29T20:36:30.881Z,5.03
2023-03-29T20:39:00.283Z,4.60
2023-03-29T20:41:28.869Z,3.93
2023-03-29T20:43:59.690Z,5.78
2023-03-29T20:46:34.133Z,6.23
2023-03-29T20:49:04.633Z,5.37
2023-03-29T20:51:33.634Z,4.30
2023-03-29T20:54:05.157Z,5.07
2023-03-29T20:56:41.710Z,5.40
2023-03-29T20:59:12.241Z,5.20
2023-03-29T21:01:41.049Z,4.60
2023-03-29T21:04:10.836Z,4.63
2023-03-29T21:06:40.371Z,5.10
2023-03-29T21:09:09.005Z,5.17
2023-03-29T21:11:37.961Z,5.40
2023-03-29T21:14:06.970Z,4.50
2023-03-29T21:16:37.035Z,4.63
2023-03-29T21:19:06.082Z,4.80
2023-03-29T21:21:35.132Z,4.00
2023-03-29T21:24:03.952Z,3.73
2023-03-29T21:26:32.698Z,4.10
2023-03-29T21:29:01.675Z,3.87
2023-03-29T21:31:30.294Z,3.63
2023-03-29T21:34:00.501Z,4.00
2023-03-29T21:36:29.290Z,3.37
2023-03-29T21:38:57.904Z,3.77
2023-03-29T21:41:27.275Z,3.30
2023-03-29T21:43:55.656Z,3.83
2023-03-29T21:46:24.857Z,3.90
2023-03-29T21:48:53.457Z,3.77
2023-03-29T21:51:23.354Z,3.90
2023-03-29T21:53:51.828Z,3.93
2023-03-29T21:56:20.738Z,3.50
2023-03-29T21:58:49.186Z,4.03
2023-03-29T22:01:18.189Z,3.50
2023-03-29T22:03:47.592Z,3.33
2023-03-29T22:06:17.677Z,3.50
2023-03-29T22:08:49.578Z,3.33
2023-03-29T22:11:18.573Z,3.20
2023-03-29T22:13:47.810Z,3.60
2023-03-29T22:16:18.356Z,3.20
2023-03-29T22:18:49.587Z,3.30
2023-03-29T22:21:22.629Z,3.70
2023-03-29T22:23:55.272Z,3.87
2023-03-29T22:26:27.784Z,3.90
2023-03-29T22:28:57.818Z,3.47
2023-03-29T22:31:28.540Z,3.70
2023-03-29T22:33:58.484Z,4.03
2023-03-29T22:36:30.652Z,3.70
2023-03-29T22:39:01.379Z,3.80
2023-03-29T22:41:30.176Z,4.60
2023-03-29T22:44:01.062Z,4.40
2023-03-29T22:46:31.280Z,4.67
2023-03-29T22:48:59.861Z,4.60
2023-03-29T22:51:28.873Z,4.90
2023-03-29T22:53:57.264Z,5.03
2023-03-29T22:56:27.278Z,5.43
2023-03-29T22:58:55.724Z,5.60
2023-03-29T23:01:24.511Z,5.10
2023-03-29T23:03:52.984Z,4.70
2023-03-29T23:06:21.434Z,4.60
2023-03-29T23:08:50.139Z,4.30
2023-03-29T23:11:19.312Z,4.17
2023-03-29T23:13:49.680Z,4.20
2023-03-29T23:16:20.847Z,4.27
2023-03-29T23:18:49.935Z,4.50
2023-03-29T23:21:18.841Z,4.50
2023-03-29T23:23:47.176Z,4.60
2023-03-29T23:26:15.854Z,4.80
2023-03-29T23:28:44.896Z,4.73
2023-03-29T23:31:18.614Z,4.40
2023-03-29T23:33:47.195Z,4.60
2023-03-29T23:36:19.483Z,4.20
2023-03-29T23:38:48.990Z,4.03
2023-03-29T23:41:19.222Z,3.83
2023-03-29T23:43:48.445Z,4.50
2023-03-29T23:46:20.516Z,4.10
2023-03-29T23:48:50.880Z,4.00
2023-03-29T23:51:23.005Z,4.07
2023-03-29T23:53:52.469Z,4.03
2023-03-29T23:56:21.698Z,3.97
2023-03-29T23:58:50.956Z,3.93
